Time;durP1;ratioP1;P1;durP2;ratioP2;P2;SDS_P1;SDS_P2;PMS_P1;PMS_P2;Temp;Humidity;BMP_temperature;BMP_pressure;BME280_temperature;BME280_humidity;BME280_pressure;Samples;Min_cycle;Max_cycle;Signal;HPM_P1;HPM_P2
2021/10/08 00:00:21;;;;;;;7.67;3.97;;;;;;;10.74;50.18;103359.19;5032907;28;20031;-74
2021/10/08 00:02:46;;;;;;;5.57;3.30;;;;;;;10.76;50.08;103375.94;5020796;28;20045;-76
2021/10/08 00:05:12;;;;;;;5.67;3.80;;;;;;;10.76;50.44;103370.59;5037340;28;20029;-74
2021/10/08 00:07:37;;;;;;;5.87;4.43;;;;;;;10.63;50.84;103342.16;5034432;28;20139;-75
2021/10/08 00:10:04;;;;;;;5.80;4.23;;;;;;;10.71;51.62;103367.38;5027036;28;20112;-74
2021/10/08 00:12:29;;;;;;;5.23;3.73;;;;;;;10.65;51.19;103365.09;5023536;28;20043;-75
2021/10/08 00:14:54;;;;;;;9.23;4.63;;;;;;;10.69;51.09;103363.09;5037059;28;20037;-75
2021/10/08 00:17:21;;;;;;;7.83;4.17;;;;;;;10.73;51.27;103369.94;5035988;28;20413;-76
2021/10/08 00:19:46;;;;;;;5.07;3.67;;;;;;;10.71;50.95;103371.88;5036145;28;20071;-76
2021/10/08 00:22:13;;;;;;;5.17;3.70;;;;;;;10.61;51.18;103365.41;5054209;28;20416;-75
2021/10/08 00:24:40;;;;;;;9.10;4.67;;;;;;;10.61;51.30;103365.41;5036717;28;20118;-75
2021/10/08 00:27:09;;;;;;;8.80;3.90;;;;;;;10.62;51.59;103373.28;5036355;28;20029;-75
2021/10/08 00:29:35;;;;;;;8.10;4.27;;;;;;;10.61;51.90;103371.59;5034924;28;20028;-75
2021/10/08 00:32:00;;;;;;;7.53;4.23;;;;;;;10.55;52.01;103366.66;5034647;28;20519;-76
2021/10/08 00:34:26;;;;;;;5.47;4.07;;;;;;;10.55;51.92;103364.00;5044130;28;20024;-76
2021/10/08 00:36:51;;;;;;;6.23;3.80;;;;;;;10.54;51.61;103362.28;5035013;28;20176;-74
2021/10/08 00:39:17;;;;;;;7.20;3.60;;;;;;;10.53;51.57;103363.25;5035778;28;20025;-74
2021/10/08 00:41:43;;;;;;;7.43;4.43;;;;;;;10.56;51.12;103360.38;5035179;28;20041;-74
2021/10/08 00:44:09;;;;;;;9.00;4.33;;;;;;;10.60;51.19;103369.88;5018710;28;20029;-75
2021/10/08 00:46:34;;;;;;;5.93;4.03;;;;;;;10.57;51.31;103364.75;5017233;28;20186;-75
2021/10/08 00:49:00;;;;;;;5.33;4.27;;;;;;;10.59;51.40;103370.81;5023371;28;20112;-74
2021/10/08 00:51:25;;;;;;;7.80;4.17;;;;;;;10.49;50.94;103351.06;5036075;28;20163;-75
2021/10/08 00:53:51;;;;;;;10.00;4.23;;;;;;;10.50;51.17;103358.09;5052943;28;20035;-76
2021/10/08 00:56:17;;;;;;;7.70;4.17;;;;;;;10.57;50.93;103369.22;5035013;28;20124;-75
2021/10/08 00:58:43;;;;;;;6.53;3.83;;;;;;;10.63;51.54;103374.16;5033330;28;20037;-75
2021/10/08 01:01:10;;;;;;;4.83;3.80;;;;;;;10.58;51.19;103376.25;5017917;28;20040;-75
2021/10/08 01:03:36;;;;;;;5.77;3.33;;;;;;;10.58;51.65;103373.59;5034100;28;20040;-74
2021/10/08 01:06:02;;;;;;;10.33;4.90;;;;;;;10.50;51.09;103368.78;5034198;28;20485;-75
2021/10/08 01:08:27;;;;;;;5.47;3.77;;;;;;;10.55;51.54;103383.50;5029312;28;20236;-75
2021/10/08 01:10:53;;;;;;;5.20;3.83;;;;;;;10.56;51.41;103384.34;5033394;28;20021;-74
2021/10/08 01:13:18;;;;;;;5.30;4.07;;;;;;;10.55;51.11;103383.50;5021811;28;20159;-76
2021/10/08 01:15:44;;;;;;;10.57;4.63;;;;;;;10.59;51.30;103381.50;5033669;28;20024;-74
2021/10/08 01:18:10;;;;;;;8.27;4.60;;;;;;;10.59;51.20;103389.47;5033815;28;20037;-74
2021/10/08 01:20:36;;;;;;;9.03;4.43;;;;;;;10.57;51.82;103387.88;5033360;28;20021;-74
2021/10/08 01:23:01;;;;;;;4.80;4.13;;;;;;;10.60;51.02;103401.84;5049705;28;20036;-75
2021/10/08 01:25:29;;;;;;;6.43;3.93;;;;;;;10.58;51.50;103387.78;5034328;28;20028;-74
2021/10/08 01:27:54;;;;;;;9.30;4.53;;;;;;;10.52;51.47;103390.84;5033068;28;20029;-75
2021/10/08 01:30:20;;;;;;;8.97;4.10;;;;;;;10.51;51.76;103392.66;5034086;28;20044;-74
2021/10/08 01:32:46;;;;;;;11.23;5.30;;;;;;;10.57;51.47;103395.88;5032229;28;20037;-75
2021/10/08 01:35:12;;;;;;;5.53;4.23;;;;;;;10.45;52.08;103386.88;5033922;28;20035;-74
2021/10/08 01:37:38;;;;;;;8.93;4.17;;;;;;;10.54;52.13;103404.91;5029914;28;20033;-75
2021/10/08 01:40:04;;;;;;;8.17;5.07;;;;;;;10.50;52.34;103406.94;5029915;28;20020;-75
2021/10/08 01:42:30;;;;;;;7.97;4.70;;;;;;;10.47;52.34;103399.13;5033112;28;20059;-74
2021/10/08 01:44:55;;;;;;;8.83;4.50;;;;;;;10.47;52.88;103408.94;5032700;28;20029;-74
2021/10/08 01:47:22;;;;;;;7.30;4.00;;;;;;;10.53;52.51;103405.88;5032360;28;21195;-74
2021/10/08 01:49:47;;;;;;;8.23;4.77;;;;;;;10.53;52.70;103405.88;5032081;28;20063;-74
2021/10/08 01:52:13;;;;;;;10.17;4.67;;;;;;;10.52;52.70;103390.84;5044394;28;20037;-75
2021/10/08 01:54:39;;;;;;;7.13;4.37;;;;;;;10.47;53.03;103404.47;5024275;28;20522;-75
2021/10/08 01:57:05;;;;;;;9.07;5.20;;;;;;;10.52;52.57;103405.00;5031381;28;20021;-74
2021/10/08 01:59:30;;;;;;;10.47;5.37;;;;;;;10.57;52.98;103402.06;5034228;28;20035;-75
2021/10/08 02:01:56;;;;;;;13.43;5.33;;;;;;;10.53;53.40;103411.19;5048929;28;20041;-74
2021/10/08 02:04:21;;;;;;;9.27;5.30;;;;;;;10.54;53.04;103404.91;5032296;28;20451;-75
2021/10/08 02:06:47;;;;;;;10.37;5.03;;;;;;;10.56;53.04;103400.34;5020595;28;20060;-75
2021/10/08 02:09:12;;;;;;;13.47;5.03;;;;;;;10.63;52.84;103408.78;5035019;28;20037;-74
2021/10/08 02:11:38;;;;;;;11.50;5.00;;;;;;;10.53;53.38;103400.53;5047526;28;20041;-76
2021/10/08 02:14:03;;;;;;;7.33;4.63;;;;;;;10.54;53.33;103402.25;5032533;28;20397;-74
2021/10/08 02:16:29;;;;;;;8.50;6.03;;;;;;;10.62;53.12;103410.59;5027602;28;20488;-76
2021/10/08 02:18:55;;;;;;;7.10;4.23;;;;;;;10.64;53.03;103416.69;5019169;28;20028;-74
2021/10/08 02:21:21;;;;;;;10.37;4.27;;;;;;;10.54;53.37;103413.78;5031358;28;20029;-75
2021/10/08 02:23:47;;;;;;;12.43;4.10;;;;;;;10.51;53.26;103402.44;5031851;28;20031;-74
2021/10/08 02:26:13;;;;;;;7.43;4.73;;;;;;;10.60;52.97;103417.84;5049338;28;20021;-75
2021/10/08 02:28:39;;;;;;;11.03;4.63;;;;;;;10.58;52.75;103425.06;5030652;28;20512;-75
2021/10/08 02:31:04;;;;;;;8.43;4.23;;;;;;;10.51;53.17;103418.44;5046564;28;20032;-75
2021/10/08 02:33:30;;;;;;;9.63;4.77;;;;;;;10.45;53.04;103425.03;5031424;28;20085;-74
2021/10/08 02:35:56;;;;;;;7.20;4.57;;;;;;;10.35;53.15;103413.22;5030412;28;20063;-74
2021/10/08 02:38:23;;;;;;;10.37;4.33;;;;;;;10.36;53.69;103419.38;5048153;28;20078;-75
2021/10/08 02:40:48;;;;;;;8.43;3.63;;;;;;;10.31;53.65;103408.19;5015231;28;20087;-74
2021/10/08 02:43:14;;;;;;;6.07;4.13;;;;;;;10.35;53.61;103425.66;5032188;28;20037;-75
2021/10/08 02:45:41;;;;;;;6.77;4.93;;;;;;;10.24;53.68;103421.88;5033806;28;20033;-73
2021/10/08 02:48:08;;;;;;;7.37;4.50;;;;;;;10.27;52.84;103431.50;5031051;28;20033;-75
2021/10/08 02:50:34;;;;;;;9.10;4.30;;;;;;;10.12;53.86;103417.31;5016344;28;20614;-75
2021/10/08 02:52:59;;;;;;;7.97;4.30;;;;;;;10.12;53.62;103421.75;5049658;28;20024;-74
2021/10/08 02:55:25;;;;;;;7.03;4.90;;;;;;;10.11;53.42;103420.88;5048710;28;20024;-74
2021/10/08 02:57:50;;;;;;;6.50;3.83;;;;;;;10.02;54.15;103415.28;5023183;28;20062;-75
2021/10/08 03:00:17;;;;;;;5.23;3.73;;;;;;;10.08;54.38;103423.75;5030124;28;20111;-75
2021/10/08 03:02:42;;;;;;;10.83;4.37;;;;;;;9.98;53.93;103414.63;5031292;28;20114;-74
2021/10/08 03:05:08;;;;;;;11.57;5.03;;;;;;;9.87;54.62;103409.09;5047712;28;20029;-75
2021/10/08 03:07:33;;;;;;;9.17;4.40;;;;;;;9.80;54.83;103415.72;5048257;28;20025;-75
2021/10/08 03:09:59;;;;;;;6.00;3.53;;;;;;;9.70;54.99;103425.22;5031517;28;20029;-75
2021/10/08 03:12:26;;;;;;;9.17;4.27;;;;;;;9.69;55.18;103419.03;5013849;28;20032;-75
2021/10/08 03:14:51;;;;;;;7.77;4.57;;;;;;;9.84;54.94;103441.22;5020562;28;20025;-75
2021/10/08 03:17:17;;;;;;;8.77;4.30;;;;;;;9.78;54.88;103423.81;5030944;28;20029;-74
2021/10/08 03:19:45;;;;;;;8.07;4.87;;;;;;;9.95;54.75;103430.78;5031116;28;20029;-75
2021/10/08 03:22:11;;;;;;;7.10;3.97;;;;;;;10.01;54.79;103438.38;5022557;28;20032;-75
2021/10/08 03:24:38;;;;;;;7.83;4.53;;;;;;;10.14;54.65;103442.03;5016562;28;20132;-75
2021/10/08 03:27:03;;;;;;;6.93;4.90;;;;;;;10.08;54.21;103441.53;5052423;28;20575;-75
2021/10/08 03:29:29;;;;;;;8.70;5.07;;;;;;;10.13;54.77;103442.97;5024656;28;20021;-74
2021/10/08 03:31:54;;;;;;;9.10;5.30;;;;;;;10.06;54.38;103430.97;5022911;28;20033;-75
2021/10/08 03:34:20;;;;;;;8.63;4.40;;;;;;;10.08;54.86;103442.38;5036632;28;20401;-76
2021/10/08 03:36:54;;;;;;;12.70;5.10;;;;;;;10.13;54.40;103444.78;5042757;28;20035;-75
2021/10/08 03:39:25;;;;;;;8.07;4.23;;;;;;;10.15;54.81;103448.22;5021419;28;20523;-75
2021/10/08 03:41:53;;;;;;;9.30;4.43;;;;;;;10.16;54.73;103456.09;5017409;28;21088;-75
2021/10/08 03:44:19;;;;;;;7.20;4.27;;;;;;;10.18;54.59;103459.53;5033702;28;20025;-74
2021/10/08 03:46:57;;;;;;;8.63;4.80;;;;;;;10.15;54.42;103440.22;5033714;28;20036;-74
2021/10/08 03:49:23;;;;;;;6.13;4.60;;;;;;;10.13;55.35;103439.47;5034047;28;20025;-75
2021/10/08 03:51:49;;;;;;;9.33;4.30;;;;;;;10.02;55.26;103434.78;5014968;28;20175;-75
2021/10/08 03:54:16;;;;;;;9.33;3.80;;;;;;;10.08;55.20;103442.38;5032311;28;20028;-75
2021/10/08 03:56:46;;;;;;;7.57;4.73;;;;;;;10.07;55.56;103446.00;5032501;28;20044;-75
2021/10/08 03:59:11;;;;;;;8.50;4.17;;;;;;;10.06;54.91;103443.41;5032766;28;20028;-75
2021/10/08 04:01:37;;;;;;;8.43;4.50;;;;;;;10.12;55.07;103443.94;5031667;28;20045;-76
2021/10/08 04:04:04;;;;;;;9.20;5.40;;;;;;;10.21;54.88;103458.50;5017958;28;20055;-74
2021/10/08 04:06:31;;;;;;;6.73;4.77;;;;;;;10.18;55.20;103451.53;5047739;28;20170;-75
2021/10/08 04:08:57;;;;;;;8.47;5.17;;;;;;;10.14;54.95;103450.00;5032185;28;20036;-75
2021/10/08 04:11:24;;;;;;;7.57;4.97;;;;;;;10.14;55.45;103452.69;5049599;28;20029;-74
2021/10/08 04:13:49;;;;;;;7.70;4.33;;;;;;;10.11;55.18;103452.84;5034595;28;20079;-75
2021/10/08 04:16:15;;;;;;;9.70;5.30;;;;;;;10.15;55.39;103458.84;5035177;28;20033;-74
2021/10/08 04:18:40;;;;;;;8.87;5.13;;;;;;;10.12;55.43;103449.25;5030530;28;20144;-74
2021/10/08 04:21:06;;;;;;;7.03;5.13;;;;;;;10.10;55.70;103466.25;4998078;28;20538;-76
2021/10/08 04:23:31;;;;;;;12.37;5.73;;;;;;;10.03;56.06;103444.47;5034152;28;20036;-75
2021/10/08 04:25:57;;;;;;;11.93;6.07;;;;;;;10.10;55.88;103456.44;5051257;28;20029;-74
2021/10/08 04:28:22;;;;;;;8.00;4.77;;;;;;;10.09;55.89;103454.75;5026124;28;20021;-74
2021/10/08 04:30:48;;;;;;;8.67;5.27;;;;;;;10.12;55.94;103454.59;5017378;28;20033;-75
2021/10/08 04:33:18;;;;;;;9.83;5.70;;;;;;;10.12;55.69;103461.69;5019561;28;20036;-76
2021/10/08 04:35:44;;;;;;;10.47;5.57;;;;;;;10.15;55.78;103458.84;5031086;28;20149;-75
2021/10/08 04:38:11;;;;;;;8.53;4.83;;;;;;;10.15;55.51;103457.06;5015895;28;20035;-75
2021/10/08 04:40:37;;;;;;;26.00;5.90;;;;;;;10.26;56.05;103466.22;5044820;28;20135;-76
2021/10/08 04:43:03;;;;;;;14.57;5.77;;;;;;;10.15;55.60;103446.41;5045459;28;20040;-75
2021/10/08 04:45:28;;;;;;;7.77;4.47;;;;;;;10.22;55.92;103463.75;5026920;28;20543;-75
2021/10/08 04:47:55;;;;;;;11.53;6.87;;;;;;;10.27;55.80;103465.25;5030578;28;20079;-74
2021/10/08 04:50:21;;;;;;;11.10;5.90;;;;;;;10.36;55.83;103470.84;5026453;28;20025;-75
2021/10/08 04:52:47;;;;;;;12.03;4.87;;;;;;;10.34;55.73;103466.59;5031421;28;20443;-75
2021/10/08 04:55:12;;;;;;;11.13;7.10;;;;;;;10.36;55.49;103472.66;5028771;28;20025;-75
2021/10/08 04:57:39;;;;;;;9.07;5.10;;;;;;;10.27;55.64;103473.25;5028716;28;20064;-76
2021/10/08 05:00:05;;;;;;;12.07;5.20;;;;;;;10.27;55.76;103476.75;5031092;28;20024;-74
2021/10/08 05:02:32;;;;;;;10.70;5.37;;;;;;;10.27;55.70;103468.78;5042189;28;20560;-75
2021/10/08 05:04:57;;;;;;;10.60;5.93;;;;;;;10.39;55.25;103473.34;5015702;28;20119;-75
2021/10/08 05:07:23;;;;;;;11.63;5.20;;;;;;;10.44;55.31;103473.94;5042418;28;20091;-75
2021/10/08 05:09:49;;;;;;;9.77;5.50;;;;;;;10.52;55.41;103482.28;5039729;28;20033;-75
2021/10/08 05:12:15;;;;;;;9.00;5.03;;;;;;;10.57;54.75;103482.00;5043910;28;20715;-77
2021/10/08 05:14:40;;;;;;;18.30;7.13;;;;;;;10.51;54.95;103467.25;5029817;28;20033;-75
2021/10/08 05:17:07;;;;;;;12.20;6.20;;;;;;;10.59;55.14;103480.09;5017952;28;20143;-75
2021/10/08 05:19:33;;;;;;;10.97;5.17;;;;;;;10.61;55.23;103466.66;5031210;28;20449;-77
2021/10/08 05:21:59;;;;;;;16.43;5.40;;;;;;;10.64;55.33;103482.47;5030569;28;20049;-77
2021/10/08 05:24:24;;;;;;;9.70;5.63;;;;;;;10.57;55.08;103482.00;5042862;28;20032;-75
2021/10/08 05:26:50;;;;;;;17.13;5.90;;;;;;;10.58;55.73;103483.72;5011922;28;20036;-75
2021/10/08 05:29:15;;;;;;;10.00;5.60;;;;;;;10.64;55.09;103491.31;5021075;28;20542;-77
2021/10/08 05:31:41;;;;;;;10.67;5.30;;;;;;;10.68;55.45;103490.16;5031928;28;20041;-75
2021/10/08 05:34:06;;;;;;;9.77;5.57;;;;;;;10.59;55.19;103474.75;5031659;28;20033;-76
2021/10/08 05:36:32;;;;;;;14.43;5.33;;;;;;;10.65;55.22;103479.69;5027703;28;20055;-75
2021/10/08 05:38:57;;;;;;;15.97;6.73;;;;;;;10.66;54.96;103486.75;5031238;28;20082;-76
2021/10/08 05:41:29;;;;;;;9.33;6.23;;;;;;;10.64;55.41;103477.97;5018125;28;20032;-77
2021/10/08 05:43:54;;;;;;;13.67;4.90;;;;;;;10.71;55.25;103490.00;5034014;28;20548;-76
2021/10/08 05:46:20;;;;;;;13.33;5.80;;;;;;;10.79;54.77;103498.34;5013522;28;20033;-76
2021/10/08 05:48:46;;;;;;;10.67;5.57;;;;;;;10.70;55.55;103514.94;5009167;28;20033;-76
2021/10/08 05:51:13;;;;;;;9.97;6.37;;;;;;;10.53;56.03;103493.81;5008563;28;20025;-77
2021/10/08 05:53:39;;;;;;;10.33;5.90;;;;;;;10.68;55.74;103500.81;5008133;28;20471;-75
2021/10/08 05:56:04;;;;;;;9.70;5.53;;;;;;;10.79;55.22;103503.69;5008060;28;20109;-75
2021/10/08 05:58:30;;;;;;;16.67;8.60;;;;;;;10.92;54.58;103514.41;5024681;28;20029;-76
2021/10/08 06:00:56;;;;;;;10.83;5.50;;;;;;;11.12;54.69;103526.47;5026290;28;20029;-76
2021/10/08 06:03:23;;;;;;;13.77;5.80;;;;;;;11.18;54.20;103528.75;5026313;28;20443;-79
2021/10/08 06:05:49;;;;;;;12.80;6.03;;;;;;;11.23;54.41;103528.44;5014458;28;20033;-76
2021/10/08 06:08:15;;;;;;;10.93;7.70;;;;;;;11.22;53.60;103529.41;5024240;28;20032;-76
2021/10/08 06:10:41;;;;;;;12.37;5.20;;;;;;;11.23;53.47;103533.78;5015643;28;20067;-75
2021/10/08 06:13:06;;;;;;;12.80;6.27;;;;;;;11.11;53.63;103522.09;5006521;28;20033;-75
2021/10/08 06:15:32;;;;;;;9.63;5.23;;;;;;;11.04;54.23;103523.47;5005814;28;20033;-77
2021/10/08 06:17:59;;;;;;;13.00;5.27;;;;;;;11.10;54.00;103539.06;5036522;28;20110;-78
2021/10/08 06:20:26;;;;;;;11.30;6.40;;;;;;;10.98;54.50;103534.50;5020901;28;20070;-76
2021/10/08 06:22:52;;;;;;;12.03;7.00;;;;;;;11.10;54.21;103544.38;5021048;28;20038;-76
2021/10/08 06:25:19;;;;;;;18.87;6.50;;;;;;;11.16;53.83;103544.84;4994836;28;20043;-80
2021/10/08 06:27:46;;;;;;;8.37;5.67;;;;;;;11.32;53.57;103555.41;5000949;28;20461;-75
2021/10/08 06:30:12;;;;;;;11.03;5.77;;;;;;;11.48;52.99;103549.91;5008078;28;20021;-76
2021/10/08 06:32:39;;;;;;;13.73;6.23;;;;;;;11.63;52.88;103553.38;4993191;28;20033;-76
2021/10/08 06:35:06;;;;;;;11.23;5.93;;;;;;;11.74;52.42;103561.53;5018015;28;20058;-74
2021/10/08 06:37:32;;;;;;;10.13;6.40;;;;;;;11.81;52.23;103557.50;4999855;28;20696;-77
2021/10/08 06:39:58;;;;;;;11.33;6.17;;;;;;;11.86;52.34;103554.56;5004193;28;20040;-77
2021/10/08 06:42:26;;;;;;;16.33;5.97;;;;;;;11.94;52.21;103558.41;5004608;28;20029;-77
2021/10/08 06:44:52;;;;;;;8.68;5.75;;;;;;;12.08;51.92;103562.81;5018851;28;20459;-77
2021/10/08 06:47:19;;;;;;;13.93;6.27;;;;;;;12.03;51.69;103556.94;5005182;28;20052;-77
2021/10/08 06:49:45;;;;;;;31.07;16.70;;;;;;;12.12;51.95;103566.13;4997585;28;20036;-77
2021/10/08 06:52:12;;;;;;;13.93;5.87;;;;;;;12.23;51.73;103564.44;5021959;28;20029;-77
2021/10/08 06:54:37;;;;;;;14.10;8.47;;;;;;;12.14;51.56;103558.88;5021229;28;20138;-78
2021/10/08 06:57:06;;;;;;;12.13;7.57;;;;;;;12.08;52.04;103558.31;4997581;28;20107;-77
2021/10/08 06:59:31;;;;;;;17.25;7.07;;;;;;;12.08;52.07;103566.34;5031310;28;20040;-77
2021/10/08 07:01:57;;;;;;;16.43;7.93;;;;;;;12.13;51.83;103563.34;5029470;28;20548;-76
2021/10/08 07:04:24;;;;;;;16.47;6.20;;;;;;;12.19;51.75;103578.13;5043501;28;20025;-77
2021/10/08 07:06:50;;;;;;;14.60;7.03;;;;;;;12.09;51.68;103559.19;5006542;28;20024;-77
2021/10/08 07:09:16;;;;;;;11.97;6.80;;;;;;;12.16;52.19;103573.00;5038282;28;20832;-78
2021/10/08 07:11:42;;;;;;;32.43;9.43;;;;;;;12.10;52.16;103579.59;5013851;28;20041;-77
2021/10/08 07:14:07;;;;;;;10.23;5.63;;;;;;;12.17;52.18;103580.06;5024522;28;20045;-79
2021/10/08 07:16:35;;;;;;;12.17;6.63;;;;;;;12.09;52.38;103568.06;5027158;28;20055;-80
2021/10/08 07:19:13;;;;;;;10.40;7.20;;;;;;;12.17;52.43;103575.56;5004894;28;20278;-80
2021/10/08 07:21:42;;;;;;;9.23;6.80;;;;;;;12.15;51.87;103560.59;4998216;28;20108;-78
2021/10/08 07:24:08;;;;;;;11.32;5.57;;;;;;;12.21;52.14;103571.72;5013858;28;20043;-77
2021/10/08 07:26:34;;;;;;;11.03;6.70;;;;;;;12.14;52.56;103578.41;5027040;28;20055;-76
2021/10/08 07:29:01;;;;;;;11.30;7.50;;;;;;;12.14;52.36;103581.09;5024258;28;20136;-79
2021/10/08 07:31:27;;;;;;;11.00;6.17;;;;;;;12.20;52.26;103585.19;4995683;28;20039;-76
2021/10/08 07:33:52;;;;;;;13.23;7.40;;;;;;;12.26;52.12;103584.75;5016518;28;20505;-74
2021/10/08 07:36:18;;;;;;;18.33;7.70;;;;;;;12.27;51.75;103586.47;5017355;28;20032;-76
2021/10/08 07:38:44;;;;;;;16.07;5.70;;;;;;;12.34;52.14;103595.78;5015636;28;20068;-75
2021/10/08 07:41:10;;;;;;;19.13;6.40;;;;;;;12.30;52.15;103591.59;5001428;28;20127;-75
2021/10/08 07:43:37;;;;;;;9.43;5.80;;;;;;;12.34;51.68;103588.59;4998123;28;20105;-74
2021/10/08 07:46:03;;;;;;;11.50;7.13;;;;;;;12.28;51.82;103588.19;5002639;28;20033;-77
2021/10/08 07:48:36;;;;;;;16.93;7.37;;;;;;;12.40;51.85;103588.19;5004291;28;20783;-76
2021/10/08 07:51:03;;;;;;;9.00;6.97;;;;;;;12.47;51.23;103588.63;5034743;28;20029;-78
2021/10/08 07:53:29;;;;;;;14.70;5.97;;;;;;;12.37;51.58;103571.50;5011622;28;20654;-75
2021/10/08 07:56:03;;;;;;;13.23;6.50;;;;;;;12.50;51.32;103580.41;5014354;28;20032;-76
2021/10/08 07:58:28;;;;;;;11.10;5.80;;;;;;;12.57;50.98;103579.00;5020409;28;20049;-76
2021/10/08 08:00:58;;;;;;;15.03;6.97;;;;;;;12.60;51.17;103578.78;5002931;28;20382;-75
2021/10/08 08:03:26;;;;;;;16.80;6.80;;;;;;;12.59;51.00;103571.72;5004739;28;20035;-78
2021/10/08 08:05:52;;;;;;;15.68;7.18;;;;;;;12.69;50.70;103580.81;5018682;28;20037;-78
2021/10/08 08:08:23;;;;;;;11.37;6.50;;;;;;;12.58;51.11;103590.56;5025579;28;20043;-76
2021/10/08 08:10:50;;;;;;;14.07;7.20;;;;;;;12.65;51.16;103592.69;5007836;28;20040;-75
2021/10/08 08:13:16;;;;;;;13.37;6.70;;;;;;;12.66;50.66;103575.69;5007702;28;20028;-76
2021/10/08 08:15:42;;;;;;;24.03;8.93;;;;;;;12.85;50.55;103590.44;5019860;28;20038;-77
2021/10/08 08:18:08;;;;;;;16.77;7.20;;;;;;;12.94;50.10;103571.03;5020390;28;20452;-76
2021/10/08 08:20:34;;;;;;;13.50;7.40;;;;;;;13.15;49.66;103582.03;5019833;28;20045;-76
2021/10/08 08:23:01;;;;;;;14.63;7.17;;;;;;;13.28;49.33;103583.72;5021208;28;20024;-78
2021/10/08 08:25:27;;;;;;;16.17;8.77;;;;;;;13.30;49.43;103568.44;5038449;28;20077;-77
2021/10/08 08:27:56;;;;;;;16.67;7.13;;;;;;;13.55;48.91;103594.25;5028445;28;20057;-76
2021/10/08 08:30:22;;;;;;;19.20;8.87;;;;;;;13.55;48.78;103577.31;5028985;28;20029;-77
2021/10/08 08:32:50;;;;;;;13.80;7.93;;;;;;;13.61;48.87;103592.97;5003190;28;20041;-77
2021/10/08 08:35:16;;;;;;;14.50;9.25;;;;;;;13.50;49.01;103587.53;5008426;28;20123;-76
2021/10/08 08:37:42;;;;;;;21.33;9.27;;;;;;;13.52;49.41;103585.56;5021610;28;20191;-75
2021/10/08 08:40:14;;;;;;;14.07;7.03;;;;;;;13.51;49.21;103598.13;5022653;28;20033;-78
2021/10/08 08:42:47;;;;;;;21.47;9.10;;;;;;;13.33;49.61;103572.72;5038416;28;20028;-76
2021/10/08 08:45:13;;;;;;;15.53;6.90;;;;;;;13.06;50.26;103572.84;5023082;28;20048;-75
2021/10/08 08:47:39;;;;;;;15.57;7.33;;;;;;;12.60;50.42;103517.28;5004943;28;20029;-79
2021/10/08 08:50:10;;;;;;;10.27;7.07;;;;;;;13.21;49.96;103576.25;5019644;28;20021;-76
2021/10/08 08:52:37;;;;;;;14.60;6.43;;;;;;;13.20;49.60;103545.13;5017564;28;20119;-76
2021/10/08 08:55:03;;;;;;;12.47;7.00;;;;;;;13.35;49.33;103532.44;5017560;28;20033;-76
2021/10/08 08:57:32;;;;;;;12.10;7.37;;;;;;;13.77;48.33;103549.78;5017035;28;20762;-80
2021/10/08 09:00:06;;;;;;;11.97;6.53;;;;;;;13.76;48.37;103527.50;5018945;28;20045;-76
2021/10/08 09:02:33;;;;;;;17.63;7.20;;;;;;;14.17;48.19;103601.22;5030227;28;20554;-79
2021/10/08 09:05:02;;;;;;;13.73;7.13;;;;;;;13.52;48.99;103537.38;5005281;28;20029;-76
2021/10/08 09:07:34;;;;;;;16.10;7.70;;;;;;;13.52;49.80;103556.13;5013452;28;20099;-74
2021/10/08 09:10:13;;;;;;;15.57;8.70;;;;;;;13.49;50.28;103575.09;4999174;28;20143;-77
2021/10/08 09:12:40;;;;;;;12.93;8.23;;;;;;;13.48;50.75;103597.50;5004813;28;20069;-78
2021/10/08 09:15:08;;;;;;;23.20;9.53;;;;;;;13.52;50.84;103596.28;5030182;28;20024;-77
2021/10/08 09:17:33;;;;;;;18.83;10.70;;;;;;;13.48;50.59;103582.28;5014160;28;20025;-75
2021/10/08 09:20:05;;;;;;;22.70;10.67;;;;;;;13.60;50.68;103599.28;5010448;28;20646;-75
2021/10/08 09:22:38;;;;;;;15.90;10.23;;;;;;;13.69;50.97;103600.41;5031355;28;20124;-78
2021/10/08 09:25:26;;;;;;;26.77;8.67;;;;;;;13.77;50.82;103603.38;5011408;28;20227;-76
2021/10/08 09:28:10;;;;;;;21.70;11.23;;;;;;;13.74;50.70;103585.69;5017415;28;20763;-75
2021/10/08 09:30:46;;;;;;;17.40;9.43;;;;;;;13.71;50.65;103542.22;5011283;28;20029;-79
2021/10/08 09:33:29;;;;;;;16.50;9.17;;;;;;;14.39;50.50;103605.78;5009203;28;20033;-74
2021/10/08 09:35:59;;;;;;;21.93;8.27;;;;;;;14.32;49.98;103559.81;5027476;28;20029;-75
2021/10/08 09:38:26;;;;;;;13.07;8.27;;;;;;;14.34;49.73;103531.06;5030014;28;20029;-77
2021/10/08 09:40:59;;;;;;;14.87;9.23;;;;;;;14.76;49.41;103571.63;5007820;28;20804;-77
2021/10/08 09:43:26;;;;;;;16.30;9.33;;;;;;;15.02;48.75;103589.16;5020863;28;20104;-75
2021/10/08 09:45:55;;;;;;;17.57;10.40;;;;;;;14.74;48.86;103563.66;5024627;28;20040;-78
2021/10/08 09:48:24;;;;;;;;;;;;;;;14.83;49.35;103588.94;5006946;28;20678;-78
2021/10/08 09:51:23;;;;;;;19.13;9.13;;;;;;;14.36;49.71;103518.41;5024297;28;19916;-77
2021/10/08 09:53:57;;;;;;;11.00;8.17;;;;;;;14.32;49.87;103508.88;5009973;28;20101;-77
2021/10/08 09:56:39;;;;;;;13.97;8.80;;;;;;;14.59;50.64;103574.75;5038405;28;20917;-75
2021/10/08 09:59:12;;;;;;;18.63;9.97;;;;;;;14.26;50.73;103533.50;5032415;28;20029;-76
2021/10/08 10:01:43;;;;;;;13.57;8.83;;;;;;;14.04;51.50;103523.59;5009693;28;20033;-78
2021/10/08 10:04:10;;;;;;;17.13;9.37;;;;;;;13.92;52.20;103522.72;5021515;28;20833;-79
2021/10/08 10:06:39;;;;;;;19.70;9.40;;;;;;;14.17;52.19;103577.09;5009544;28;20037;-78
2021/10/08 10:09:08;;;;;;;15.30;9.23;;;;;;;13.84;51.96;103501.00;5013579;28;20029;-76
2021/10/08 10:11:35;;;;;;;23.70;11.20;;;;;;;14.06;51.19;103507.38;5009132;28;20058;-77
2021/10/08 10:14:02;;;;;;;15.73;10.37;;;;;;;14.48;51.02;103551.47;5020903;28;20029;-78
2021/10/08 10:16:31;;;;;;;17.83;9.60;;;;;;;14.50;50.45;103528.94;5028570;28;20370;-76
2021/10/08 10:18:57;;;;;;;23.53;11.87;;;;;;;14.76;50.69;103555.53;5013281;28;20654;-74
2021/10/08 10:21:26;;;;;;;18.87;10.23;;;;;;;14.60;49.92;103507.59;5008150;28;20460;-78
2021/10/08 10:23:55;;;;;;;20.88;11.18;;;;;;;15.19;49.57;103569.84;5016587;28;20439;-76
2021/10/08 10:26:24;;;;;;;23.03;10.13;;;;;;;15.23;49.20;103530.19;4974202;28;20222;-78
2021/10/08 10:28:52;;;;;;;19.83;10.40;;;;;;;15.43;48.56;103533.94;5006573;28;20123;-78
2021/10/08 10:31:18;;;;;;;17.57;11.50;;;;;;;15.68;48.32;103555.13;5001857;28;20572;-78
2021/10/08 10:33:43;;;;;;;19.30;10.37;;;;;;;15.68;48.37;103540.84;4986828;28;20044;-78
2021/10/08 10:36:31;;;;;;;23.80;9.90;;;;;;;15.48;48.18;103510.22;4990451;28;20029;-76
2021/10/08 10:39:19;;;;;;;11.88;8.70;;;;;;;15.95;47.88;103575.28;4979599;28;20550;-76
2021/10/08 10:42:14;;;;;;;17.77;9.82;;;;;;;15.88;48.01;103572.22;5016779;28;20052;-78
2021/10/08 10:45:23;;;;;;;17.63;8.97;;;;;;;15.67;48.07;103569.53;5031839;28;20128;-77
2021/10/08 10:48:24;;;;;;;18.27;9.77;;;;;;;15.44;48.71;103567.84;5011861;28;20139;-78
2021/10/08 10:51:14;;;;;;;13.83;9.17;;;;;;;15.43;48.33;103571.53;5000024;28;20128;-75
2021/10/08 10:53:52;;;;;;;14.17;9.20;;;;;;;15.33;48.49;103570.59;5027801;28;20048;-75
2021/10/08 10:56:36;;;;;;;25.37;13.37;;;;;;;15.38;48.43;103573.75;5014370;28;20037;-76
2021/10/08 10:59:26;;;;;;;14.20;9.40;;;;;;;15.52;47.92;103568.06;5010867;28;20067;-76
2021/10/08 11:02:11;;;;;;;15.83;10.67;;;;;;;15.54;47.65;103557.19;5033871;28;20093;-78
2021/10/08 11:05:01;;;;;;;21.70;10.83;;;;;;;15.58;47.59;103567.59;5035769;28;20037;-77
2021/10/08 11:07:27;;;;;;;17.40;8.83;;;;;;;15.38;47.85;103549.56;5011302;28;20121;-77
2021/10/08 11:09:56;;;;;;;12.57;9.57;;;;;;;15.44;47.97;103571.41;5014373;28;20941;-79
2021/10/08 11:12:36;;;;;;;;;;;;;;;15.30;47.94;103560.06;5013243;28;20040;-79
2021/10/08 11:15:18;;;;;;;14.57;8.50;;;;;;;15.18;47.93;103561.94;5024993;28;19959;-78
2021/10/08 11:17:53;;;;;;;16.73;9.73;;;;;;;15.04;48.27;103560.38;5009808;28;20021;-78
2021/10/08 11:20:25;;;;;;;23.20;10.63;;;;;;;14.83;49.20;103557.59;5023765;28;20032;-76
2021/10/08 11:22:58;;;;;;;21.63;10.20;;;;;;;14.68;49.42;103555.25;5034037;28;20032;-76